sensor_id;sensor_type;location;lat;lon;timestamp;P1;durP1;ratioP1;P2;durP2;ratioP2
31974;SDS011;18500;43.618;1.474;2022-12-18T00:02:16;641.33;;;593.83;;
31974;SDS011;18500;43.618;1.474;2022-12-18T00:04:41;564.40;;;523.15;;
31974;SDS011;18500;43.618;1.474;2022-12-18T00:07:07;521.78;;;485.70;;
31974;SDS011;18500;43.618;1.474;2022-12-18T00:09:33;503.17;;;469.02;;
31974;SDS011;18500;43.618;1.474;2022-12-18T00:11:59;611.05;;;568.65;;
31974;SDS011;18500;43.618;1.474;2022-12-18T00:14:25;439.33;;;409.90;;
31974;SDS011;18500;43.618;1.474;2022-12-18T00:16:50;303.60;;;283.20;;
31974;SDS011;18500;43.618;1.474;2022-12-18T00:19:16;496.67;;;464.92;;
31974;SDS011;18500;43.618;1.474;2022-12-18T00:21:42;481.25;;;450.52;;
31974;SDS011;18500;43.618;1.474;2022-12-18T00:24:09;425.35;;;396.98;;
31974;SDS011;18500;43.618;1.474;2022-12-18T00:26:36;539.92;;;504.48;;
31974;SDS011;18500;43.618;1.474;2022-12-18T00:29:04;531.22;;;496.50;;
31974;SDS011;18500;43.618;1.474;2022-12-18T00:31:36;517.25;;;484.17;;
31974;SDS011;18500;43.618;1.474;2022-12-18T00:34:03;459.88;;;430.25;;
31974;SDS011;18500;43.618;1.474;2022-12-18T08:01:47;336.05;;;311.30;;
31974;SDS011;18500;43.618;1.474;2022-12-18T08:04:12;328.52;;;304.40;;
31974;SDS011;18500;43.618;1.474;2022-12-18T08:06:38;330.92;;;306.92;;
31974;SDS011;18500;43.618;1.474;2022-12-18T08:09:04;321.52;;;298.77;;
31974;SDS011;18500;43.618;1.474;2022-12-18T08:11:30;392.55;;;367.38;;
31974;SDS011;18500;43.618;1.474;2022-12-18T08:13:56;277.55;;;259.00;;
31974;SDS011;18500;43.618;1.474;2022-12-18T08:16:23;250.45;;;233.60;;
31974;SDS011;18500;43.618;1.474;2022-12-18T08:18:48;272.08;;;253.98;;
31974;SDS011;18500;43.618;1.474;2022-12-18T08:21:18;271.02;;;253.38;;
31974;SDS011;18500;43.618;1.474;2022-12-18T08:23:49;269.67;;;251.63;;
31974;SDS011;18500;43.618;1.474;2022-12-18T08:26:15;296.30;;;277.30;;
31974;SDS011;18500;43.618;1.474;2022-12-18T08:28:41;295.23;;;275.58;;
31974;SDS011;18500;43.618;1.474;2022-12-18T08:31:07;276.73;;;257.85;;
31974;SDS011;18500;43.618;1.474;2022-12-18T08:33:33;322.70;;;300.70;;
31974;SDS011;18500;43.618;1.474;2022-12-18T08:36:00;369.40;;;344.70;;
31974;SDS011;18500;43.618;1.474;2022-12-18T08:38:27;348.98;;;325.67;;
31974;SDS011;18500;43.618;1.474;2022-12-18T08:40:59;380.83;;;355.65;;
31974;SDS011;18500;43.618;1.474;2022-12-18T08:43:29;276.83;;;258.17;;
31974;SDS011;18500;43.618;1.474;2022-12-18T08:46:13;301.13;;;280.67;;
31974;SDS011;18500;43.618;1.474;2022-12-18T08:48:39;284.60;;;266.23;;
31974;SDS011;18500;43.618;1.474;2022-12-18T08:51:05;294.88;;;275.33;;
31974;SDS011;18500;43.618;1.474;2022-12-18T08:53:31;342.80;;;319.33;;
31974;SDS011;18500;43.618;1.474;2022-12-18T08:55:56;359.73;;;335.17;;
31974;SDS011;18500;43.618;1.474;2022-12-18T08:58:22;351.52;;;327.63;;
31974;SDS011;18500;43.618;1.474;2022-12-18T09:00:48;346.23;;;323.15;;
31974;SDS011;18500;43.618;1.474;2022-12-18T09:03:15;385.58;;;359.08;;
31974;SDS011;18500;43.618;1.474;2022-12-18T09:05:42;357.25;;;333.67;;
31974;SDS011;18500;43.618;1.474;2022-12-18T09:08:08;335.70;;;313.00;;
31974;SDS011;18500;43.618;1.474;2022-12-18T09:10:40;440.52;;;410.92;;
31974;SDS011;18500;43.618;1.474;2022-12-18T09:13:07;538.05;;;501.52;;
31974;SDS011;18500;43.618;1.474;2022-12-18T09:15:32;483.85;;;450.50;;
31974;SDS011;18500;43.618;1.474;2022-12-18T09:17:58;588.88;;;547.40;;
31974;SDS011;18500;43.618;1.474;2022-12-18T09:20:24;520.72;;;484.02;;
31974;SDS011;18500;43.618;1.474;2022-12-18T09:22:49;528.15;;;491.65;;
31974;SDS011;18500;43.618;1.474;2022-12-18T09:25:15;496.23;;;464.88;;
31974;SDS011;18500;43.618;1.474;2022-12-18T09:27:41;392.05;;;366.80;;
31974;SDS011;18500;43.618;1.474;2022-12-18T09:30:07;458.73;;;428.15;;
31974;SDS011;18500;43.618;1.474;2022-12-18T09:32:33;460.33;;;430.50;;
31974;SDS011;18500;43.618;1.474;2022-12-18T09:34:58;436.05;;;408.05;;
31974;SDS011;18500;43.618;1.474;2022-12-18T09:37:24;489.10;;;456.75;;
31974;SDS011;18500;43.618;1.474;2022-12-18T09:39:50;454.67;;;424.58;;
31974;SDS011;18500;43.618;1.474;2022-12-18T09:42:21;476.55;;;446.17;;
31974;SDS011;18500;43.618;1.474;2022-12-18T09:44:52;485.33;;;455.20;;
31974;SDS011;18500;43.618;1.474;2022-12-18T09:49:50;492.25;;;456.98;;
31974;SDS011;18500;43.618;1.474;2022-12-18T09:55:11;583.70;;;539.63;;
31974;SDS011;18500;43.618;1.474;2022-12-18T09:58:04;723.38;;;665.30;;
31974;SDS011;18500;43.618;1.474;2022-12-18T10:00:31;652.80;;;604.65;;
31974;SDS011;18500;43.618;1.474;2022-12-18T10:03:08;640.10;;;591.08;;
31974;SDS011;18500;43.618;1.474;2022-12-18T10:05:41;669.75;;;619.13;;
31974;SDS011;18500;43.618;1.474;2022-12-18T10:08:18;364.52;;;342.02;;
31974;SDS011;18500;43.618;1.474;2022-12-18T10:10:51;380.40;;;355.90;;
31974;SDS011;18500;43.618;1.474;2022-12-18T10:13:30;404.73;;;378.52;;
31974;SDS011;18500;43.618;1.474;2022-12-18T10:16:22;501.95;;;466.42;;
31974;SDS011;18500;43.618;1.474;2022-12-18T10:24:47;367.60;;;344.42;;
31974;SDS011;18500;43.618;1.474;2022-12-18T10:27:27;812.95;;;749.40;;
31974;SDS011;18500;43.618;1.474;2022-12-18T10:29:53;633.40;;;588.92;;
31974;SDS011;18500;43.618;1.474;2022-12-18T10:32:29;489.20;;;457.60;;
31974;SDS011;18500;43.618;1.474;2022-12-18T10:34:56;634.42;;;591.55;;
31974;SDS011;18500;43.618;1.474;2022-12-18T10:37:24;676.58;;;630.03;;
31974;SDS011;18500;43.618;1.474;2022-12-18T10:40:06;475.42;;;445.83;;
31974;SDS011;18500;43.618;1.474;2022-12-18T10:42:37;621.95;;;577.63;;
31974;SDS011;18500;43.618;1.474;2022-12-18T10:45:13;643.28;;;597.42;;
31974;SDS011;18500;43.618;1.474;2022-12-18T10:47:44;831.05;;;763.95;;
31974;SDS011;18500;43.618;1.474;2022-12-18T10:50:24;619.90;;;578.92;;
31974;SDS011;18500;43.618;1.474;2022-12-18T10:52:54;800.45;;;736.20;;
31974;SDS011;18500;43.618;1.474;2022-12-18T10:55:26;1036.17;;;937.47;;
31974;SDS011;18500;43.618;1.474;2022-12-18T10:57:56;1036.70;;;940.60;;
31974;SDS011;18500;43.618;1.474;2022-12-18T11:00:41;1060.05;;;956.58;;
31974;SDS011;18500;43.618;1.474;2022-12-18T11:06:01;921.20;;;841.63;;
31974;SDS011;18500;43.618;1.474;2022-12-18T11:08:29;1120.85;;;999.72;;
31974;SDS011;18500;43.618;1.474;2022-12-18T11:10:55;1084.88;;;979.83;;
31974;SDS011;18500;43.618;1.474;2022-12-18T11:13:21;1113.40;;;993.30;;
31974;SDS011;18500;43.618;1.474;2022-12-18T11:15:49;1070.40;;;963.33;;
31974;SDS011;18500;43.618;1.474;2022-12-18T11:18:20;1136.72;;;999.90;;
31974;SDS011;18500;43.618;1.474;2022-12-18T11:20:51;1005.10;;;915.75;;
31974;SDS011;18500;43.618;1.474;2022-12-18T11:23:20;1014.60;;;921.95;;
31974;SDS011;18500;43.618;1.474;2022-12-18T11:25:52;990.65;;;903.75;;
31974;SDS011;18500;43.618;1.474;2022-12-18T11:28:34;995.10;;;898.63;;
31974;SDS011;18500;43.618;1.474;2022-12-18T11:33:42;947.50;;;864.60;;
31974;SDS011;18500;43.618;1.474;2022-12-18T11:36:17;876.78;;;805.38;;
31974;SDS011;18500;43.618;1.474;2022-12-18T11:38:45;1002.80;;;909.80;;
31974;SDS011;18500;43.618;1.474;2022-12-18T11:41:33;890.15;;;816.55;;
31974;SDS011;18500;43.618;1.474;2022-12-18T11:44:27;903.92;;;828.15;;
31974;SDS011;18500;43.618;1.474;2022-12-18T11:47:15;902.72;;;829.75;;
31974;SDS011;18500;43.618;1.474;2022-12-18T11:50:02;958.03;;;876.83;;
31974;SDS011;18500;43.618;1.474;2022-12-18T11:52:34;1088.95;;;986.70;;
31974;SDS011;18500;43.618;1.474;2022-12-18T12:00:25;977.33;;;887.75;;
31974;SDS011;18500;43.618;1.474;2022-12-18T12:08:18;1025.13;;;933.63;;
31974;SDS011;18500;43.618;1.474;2022-12-18T12:27:19;867.85;;;796.53;;
31974;SDS011;18500;43.618;1.474;2022-12-18T12:30:03;636.60;;;587.75;;
31974;SDS011;18500;43.618;1.474;2022-12-18T12:38:08;906.97;;;833.47;;
31974;SDS011;18500;43.618;1.474;2022-12-18T12:40:39;936.67;;;858.63;;
31974;SDS011;18500;43.618;1.474;2022-12-18T12:48:32;922.97;;;847.97;;
31974;SDS011;18500;43.618;1.474;2022-12-18T12:53:59;876.85;;;808.95;;
31974;SDS011;18500;43.618;1.474;2022-12-18T12:56:32;831.10;;;766.78;;
31974;SDS011;18500;43.618;1.474;2022-12-18T13:02:22;877.83;;;808.08;;
31974;SDS011;18500;43.618;1.474;2022-12-18T13:12:54;827.95;;;764.80;;
31974;SDS011;18500;43.618;1.474;2022-12-18T13:18:14;864.40;;;789.63;;
31974;SDS011;18500;43.618;1.474;2022-12-18T13:21:33;811.90;;;750.88;;
31974;SDS011;18500;43.618;1.474;2022-12-18T13:23:43;818.00;;;755.63;;
31974;SDS011;18500;43.618;1.474;2022-12-18T13:31:57;820.10;;;757.80;;
31974;SDS011;18500;43.618;1.474;2022-12-18T13:36:49;815.55;;;754.80;;
31974;SDS011;18500;43.618;1.474;2022-12-18T13:41:46;927.65;;;854.50;;
31974;SDS011;18500;43.618;1.474;2022-12-18T13:47:04;894.47;;;825.13;;
31974;SDS011;18500;43.618;1.474;2022-12-18T13:49:37;715.10;;;661.25;;
31974;SDS011;18500;43.618;1.474;2022-12-18T13:52:37;752.45;;;695.33;;
31974;SDS011;18500;43.618;1.474;2022-12-18T13:55:02;862.92;;;797.75;;
31974;SDS011;18500;43.618;1.474;2022-12-18T13:57:33;800.63;;;740.78;;
31974;SDS011;18500;43.618;1.474;2022-12-18T14:02:50;834.83;;;772.50;;
31974;SDS011;18500;43.618;1.474;2022-12-18T14:07:48;791.65;;;733.90;;
31974;SDS011;18500;43.618;1.474;2022-12-18T14:10:15;809.40;;;749.95;;
31974;SDS011;18500;43.618;1.474;2022-12-18T14:12:44;854.58;;;789.35;;
31974;SDS011;18500;43.618;1.474;2022-12-18T14:17:51;776.67;;;719.25;;
31974;SDS011;18500;43.618;1.474;2022-12-18T14:20:32;829.03;;;768.03;;
31974;SDS011;18500;43.618;1.474;2022-12-18T14:22:59;833.35;;;771.90;;
31974;SDS011;18500;43.618;1.474;2022-12-18T14:25:26;806.03;;;745.83;;
31974;SDS011;18500;43.618;1.474;2022-12-18T14:28:00;827.85;;;765.30;;
31974;SDS011;18500;43.618;1.474;2022-12-18T14:30:42;859.15;;;792.83;;
31974;SDS011;18500;43.618;1.474;2022-12-18T14:35:40;814.25;;;753.95;;
31974;SDS011;18500;43.618;1.474;2022-12-18T14:38:53;824.43;;;762.20;;
31974;SDS011;18500;43.618;1.474;2022-12-18T14:41:02;796.17;;;738.17;;
31974;SDS011;18500;43.618;1.474;2022-12-18T14:43:35;839.55;;;775.90;;
31974;SDS011;18500;43.618;1.474;2022-12-18T14:46:03;902.78;;;830.15;;
31974;SDS011;18500;43.618;1.474;2022-12-18T14:51:05;772.72;;;713.95;;
31974;SDS011;18500;43.618;1.474;2022-12-18T14:53:33;776.30;;;716.10;;
31974;SDS011;18500;43.618;1.474;2022-12-18T14:56:15;818.70;;;756.47;;
31974;SDS011;18500;43.618;1.474;2022-12-18T14:58:49;893.10;;;820.75;;
31974;SDS011;18500;43.618;1.474;2022-12-18T15:03:59;837.55;;;773.13;;
31974;SDS011;18500;43.618;1.474;2022-12-18T15:06:36;885.78;;;814.95;;
31974;SDS011;18500;43.618;1.474;2022-12-18T15:09:26;524.20;;;486.63;;
31974;SDS011;18500;43.618;1.474;2022-12-18T15:12:00;427.48;;;398.27;;
31974;SDS011;18500;43.618;1.474;2022-12-18T15:16:55;432.27;;;404.17;;
31974;SDS011;18500;43.618;1.474;2022-12-18T15:19:22;529.25;;;494.38;;
31974;SDS011;18500;43.618;1.474;2022-12-18T15:21:59;574.83;;;536.63;;
31974;SDS011;18500;43.618;1.474;2022-12-18T15:24:27;711.55;;;658.92;;
31974;SDS011;18500;43.618;1.474;2022-12-18T15:26:57;702.00;;;649.13;;
31974;SDS011;18500;43.618;1.474;2022-12-18T15:29:23;665.20;;;616.78;;
31974;SDS011;18500;43.618;1.474;2022-12-18T15:32:00;626.80;;;581.25;;
31974;SDS011;18500;43.618;1.474;2022-12-18T15:34:28;659.83;;;610.58;;
31974;SDS011;18500;43.618;1.474;2022-12-18T15:36:54;664.20;;;615.53;;
31974;SDS011;18500;43.618;1.474;2022-12-18T15:39:20;708.45;;;656.50;;
31974;SDS011;18500;43.618;1.474;2022-12-18T15:41:46;754.97;;;699.58;;
31974;SDS011;18500;43.618;1.474;2022-12-18T15:44:30;777.60;;;718.78;;
31974;SDS011;18500;43.618;1.474;2022-12-18T15:46:57;703.50;;;650.97;;
31974;SDS011;18500;43.618;1.474;2022-12-18T15:49:23;885.70;;;813.13;;
31974;SDS011;18500;43.618;1.474;2022-12-18T15:51:51;849.53;;;783.47;;
31974;SDS011;18500;43.618;1.474;2022-12-18T15:54:19;877.08;;;804.80;;
31974;SDS011;18500;43.618;1.474;2022-12-18T15:57:04;828.10;;;760.25;;
31974;SDS011;18500;43.618;1.474;2022-12-18T15:59:48;795.55;;;730.30;;
31974;SDS011;18500;43.618;1.474;2022-12-18T16:02:18;928.42;;;846.70;;
31974;SDS011;18500;43.618;1.474;2022-12-18T16:04:44;965.67;;;880.60;;
31974;SDS011;18500;43.618;1.474;2022-12-18T16:07:13;984.10;;;894.92;;
31974;SDS011;18500;43.618;1.474;2022-12-18T16:09:38;958.60;;;874.42;;
31974;SDS011;18500;43.618;1.474;2022-12-18T16:12:14;981.40;;;894.42;;
31974;SDS011;18500;43.618;1.474;2022-12-18T16:14:43;901.60;;;825.38;;
31974;SDS011;18500;43.618;1.474;2022-12-18T16:17:10;823.20;;;762.05;;
31974;SDS011;18500;43.618;1.474;2022-12-18T16:19:36;771.88;;;714.53;;
31974;SDS011;18500;43.618;1.474;2022-12-18T16:22:02;698.88;;;644.95;;
31974;SDS011;18500;43.618;1.474;2022-12-18T16:24:29;940.65;;;863.17;;
31974;SDS011;18500;43.618;1.474;2022-12-18T16:26:57;775.67;;;717.42;;
31974;SDS011;18500;43.618;1.474;2022-12-18T16:29:24;801.22;;;743.00;;
31974;SDS011;18500;43.618;1.474;2022-12-18T16:31:55;827.67;;;767.22;;
31974;SDS011;18500;43.618;1.474;2022-12-18T16:36:53;715.03;;;665.03;;
31974;SDS011;18500;43.618;1.474;2022-12-18T16:39:20;666.88;;;620.95;;
31974;SDS011;18500;43.618;1.474;2022-12-18T16:41:46;549.67;;;511.83;;
31974;SDS011;18500;43.618;1.474;2022-12-18T16:44:12;474.27;;;443.00;;
31974;SDS011;18500;43.618;1.474;2022-12-18T16:46:39;497.25;;;464.17;;
31974;SDS011;18500;43.618;1.474;2022-12-18T16:49:08;526.17;;;489.45;;
31974;SDS011;18500;43.618;1.474;2022-12-18T16:51:35;529.58;;;494.02;;
31974;SDS011;18500;43.618;1.474;2022-12-18T16:54:00;470.15;;;439.70;;
31974;SDS011;18500;43.618;1.474;2022-12-18T16:56:26;389.95;;;365.42;;
31974;SDS011;18500;43.618;1.474;2022-12-18T16:58:56;394.73;;;369.23;;
31974;SDS011;18500;43.618;1.474;2022-12-18T17:01:23;348.92;;;326.40;;
31974;SDS011;18500;43.618;1.474;2022-12-18T17:03:51;381.95;;;357.52;;
31974;SDS011;18500;43.618;1.474;2022-12-18T17:06:18;378.13;;;355.15;;
31974;SDS011;18500;43.618;1.474;2022-12-18T17:08:43;547.80;;;512.10;;
31974;SDS011;18500;43.618;1.474;2022-12-18T17:11:09;558.70;;;519.22;;
31974;SDS011;18500;43.618;1.474;2022-12-18T17:13:35;575.50;;;536.55;;
31974;SDS011;18500;43.618;1.474;2022-12-18T17:16:04;727.25;;;668.53;;
31974;SDS011;18500;43.618;1.474;2022-12-18T17:18:31;810.40;;;744.63;;
31974;SDS011;18500;43.618;1.474;2022-12-18T17:21:01;757.28;;;692.13;;
31974;SDS011;18500;43.618;1.474;2022-12-18T17:23:29;703.72;;;652.40;;
31974;SDS011;18500;43.618;1.474;2022-12-18T17:25:58;716.17;;;664.45;;
31974;SDS011;18500;43.618;1.474;2022-12-18T17:28:24;505.92;;;471.30;;
31974;SDS011;18500;43.618;1.474;2022-12-18T17:30:52;491.30;;;458.88;;
31974;SDS011;18500;43.618;1.474;2022-12-18T17:33:18;729.08;;;675.88;;
31974;SDS011;18500;43.618;1.474;2022-12-18T17:35:44;667.08;;;617.55;;
31974;SDS011;18500;43.618;1.474;2022-12-18T17:38:09;731.22;;;675.45;;
31974;SDS011;18500;43.618;1.474;2022-12-18T17:40:35;666.75;;;616.97;;
31974;SDS011;18500;43.618;1.474;2022-12-18T17:43:01;808.42;;;746.53;;
31974;SDS011;18500;43.618;1.474;2022-12-18T17:45:27;744.88;;;689.53;;
31974;SDS011;18500;43.618;1.474;2022-12-18T17:47:53;753.33;;;694.25;;
31974;SDS011;18500;43.618;1.474;2022-12-18T17:50:18;798.15;;;735.22;;
31974;SDS011;18500;43.618;1.474;2022-12-18T17:52:44;762.25;;;703.13;;
31974;SDS011;18500;43.618;1.474;2022-12-18T17:55:10;620.92;;;574.20;;
31974;SDS011;18500;43.618;1.474;2022-12-18T17:57:36;548.45;;;510.30;;
31974;SDS011;18500;43.618;1.474;2022-12-18T18:00:02;803.60;;;742.03;;
31974;SDS011;18500;43.618;1.474;2022-12-18T18:02:29;742.10;;;685.20;;
31974;SDS011;18500;43.618;1.474;2022-12-18T18:04:54;710.42;;;656.22;;
31974;SDS011;18500;43.618;1.474;2022-12-18T18:07:20;664.90;;;615.22;;
31974;SDS011;18500;43.618;1.474;2022-12-18T18:09:45;670.70;;;619.78;;
31974;SDS011;18500;43.618;1.474;2022-12-18T18:12:11;694.97;;;643.33;;
31974;SDS011;18500;43.618;1.474;2022-12-18T18:14:56;749.78;;;689.78;;
31974;SDS011;18500;43.618;1.474;2022-12-18T18:17:21;647.03;;;597.28;;
31974;SDS011;18500;43.618;1.474;2022-12-18T18:19:47;592.80;;;549.70;;
31974;SDS011;18500;43.618;1.474;2022-12-18T18:22:13;576.42;;;535.50;;
31974;SDS011;18500;43.618;1.474;2022-12-18T18:24:39;657.55;;;609.28;;
31974;SDS011;18500;43.618;1.474;2022-12-18T18:27:07;517.13;;;480.88;;
31974;SDS011;18500;43.618;1.474;2022-12-18T18:29:33;588.05;;;546.05;;
31974;SDS011;18500;43.618;1.474;2022-12-18T18:31:59;509.70;;;474.33;;
31974;SDS011;18500;43.618;1.474;2022-12-18T18:34:25;491.60;;;458.02;;
31974;SDS011;18500;43.618;1.474;2022-12-18T18:36:53;543.38;;;505.95;;
31974;SDS011;18500;43.618;1.474;2022-12-18T18:39:18;542.67;;;504.80;;
31974;SDS011;18500;43.618;1.474;2022-12-18T18:41:45;627.53;;;583.05;;
31974;SDS011;18500;43.618;1.474;2022-12-18T18:44:11;622.60;;;579.85;;
31974;SDS011;18500;43.618;1.474;2022-12-18T18:46:37;623.78;;;581.20;;
31974;SDS011;18500;43.618;1.474;2022-12-18T18:49:02;746.17;;;691.22;;
31974;SDS011;18500;43.618;1.474;2022-12-18T18:51:29;664.75;;;618.65;;
31974;SDS011;18500;43.618;1.474;2022-12-18T18:53:55;608.28;;;565.25;;
31974;SDS011;18500;43.618;1.474;2022-12-18T18:56:22;524.78;;;489.58;;
31974;SDS011;18500;43.618;1.474;2022-12-18T18:58:49;529.53;;;494.65;;
31974;SDS011;18500;43.618;1.474;2022-12-18T19:01:16;609.38;;;566.53;;
31974;SDS011;18500;43.618;1.474;2022-12-18T19:03:45;629.53;;;586.13;;
31974;SDS011;18500;43.618;1.474;2022-12-18T19:06:15;684.13;;;636.60;;
31974;SDS011;18500;43.618;1.474;2022-12-18T19:08:42;710.10;;;660.57;;
31974;SDS011;18500;43.618;1.474;2022-12-18T19:11:10;617.92;;;575.95;;
31974;SDS011;18500;43.618;1.474;2022-12-18T19:13:56;666.38;;;620.65;;
31974;SDS011;18500;43.618;1.474;2022-12-18T19:16:23;538.85;;;503.98;;
31974;SDS011;18500;43.618;1.474;2022-12-18T19:18:49;622.40;;;579.25;;
31974;SDS011;18500;43.618;1.474;2022-12-18T19:21:15;517.63;;;483.98;;
31974;SDS011;18500;43.618;1.474;2022-12-18T19:23:41;552.03;;;515.15;;
31974;SDS011;18500;43.618;1.474;2022-12-18T19:26:07;540.75;;;505.13;;
31974;SDS011;18500;43.618;1.474;2022-12-18T19:28:34;512.88;;;479.35;;
31974;SDS011;18500;43.618;1.474;2022-12-18T19:31:03;529.17;;;493.55;;
31974;SDS011;18500;43.618;1.474;2022-12-18T19:33:35;516.58;;;481.30;;
31974;SDS011;18500;43.618;1.474;2022-12-18T19:36:12;552.72;;;515.25;;
31974;SDS011;18500;43.618;1.474;2022-12-18T19:38:44;650.83;;;603.78;;
31974;SDS011;18500;43.618;1.474;2022-12-18T19:41:10;601.65;;;560.25;;
31974;SDS011;18500;43.618;1.474;2022-12-18T19:43:36;509.42;;;477.27;;
31974;SDS011;18500;43.618;1.474;2022-12-18T19:46:03;521.20;;;486.23;;
31974;SDS011;18500;43.618;1.474;2022-12-18T19:48:30;582.30;;;542.17;;
31974;SDS011;18500;43.618;1.474;2022-12-18T19:50:56;533.70;;;497.30;;
31974;SDS011;18500;43.618;1.474;2022-12-18T19:53:22;597.38;;;556.20;;
31974;SDS011;18500;43.618;1.474;2022-12-18T19:55:48;594.42;;;552.55;;
31974;SDS011;18500;43.618;1.474;2022-12-18T19:58:14;544.25;;;507.20;;
31974;SDS011;18500;43.618;1.474;2022-12-18T20:00:40;725.00;;;671.83;;
31974;SDS011;18500;43.618;1.474;2022-12-18T20:03:05;703.30;;;650.22;;
31974;SDS011;18500;43.618;1.474;2022-12-18T20:05:31;805.25;;;742.80;;
31974;SDS011;18500;43.618;1.474;2022-12-18T20:07:58;751.85;;;691.58;;
31974;SDS011;18500;43.618;1.474;2022-12-18T20:10:23;559.03;;;519.90;;
31974;SDS011;18500;43.618;1.474;2022-12-18T20:12:49;542.03;;;506.13;;
31974;SDS011;18500;43.618;1.474;2022-12-18T20:15:15;586.67;;;547.13;;
31974;SDS011;18500;43.618;1.474;2022-12-18T20:17:40;698.53;;;648.47;;
31974;SDS011;18500;43.618;1.474;2022-12-18T20:20:06;453.17;;;423.80;;
31974;SDS011;18500;43.618;1.474;2022-12-18T20:22:32;771.13;;;711.67;;
31974;SDS011;18500;43.618;1.474;2022-12-18T20:24:58;713.20;;;662.58;;
31974;SDS011;18500;43.618;1.474;2022-12-18T20:27:24;714.13;;;661.38;;
31974;SDS011;18500;43.618;1.474;2022-12-18T20:29:49;497.88;;;465.70;;
31974;SDS011;18500;43.618;1.474;2022-12-18T20:32:15;652.60;;;606.13;;
31974;SDS011;18500;43.618;1.474;2022-12-18T20:34:41;726.33;;;671.47;;
31974;SDS011;18500;43.618;1.474;2022-12-18T20:37:06;849.35;;;779.88;;
31974;SDS011;18500;43.618;1.474;2022-12-18T20:39:32;638.03;;;593.70;;
31974;SDS011;18500;43.618;1.474;2022-12-18T20:41:58;580.72;;;540.97;;
31974;SDS011;18500;43.618;1.474;2022-12-18T20:44:23;677.78;;;628.08;;
31974;SDS011;18500;43.618;1.474;2022-12-18T20:46:51;537.75;;;502.48;;
31974;SDS011;18500;43.618;1.474;2022-12-18T20:49:21;568.97;;;532.33;;
31974;SDS011;18500;43.618;1.474;2022-12-18T20:51:49;586.70;;;548.97;;
31974;SDS011;18500;43.618;1.474;2022-12-18T20:54:15;590.55;;;550.45;;
31974;SDS011;18500;43.618;1.474;2022-12-18T20:56:43;532.58;;;495.15;;
31974;SDS011;18500;43.618;1.474;2022-12-18T20:59:08;463.70;;;434.25;;
31974;SDS011;18500;43.618;1.474;2022-12-18T21:01:34;431.80;;;404.48;;
31974;SDS011;18500;43.618;1.474;2022-12-18T21:04:00;631.25;;;589.22;;
31974;SDS011;18500;43.618;1.474;2022-12-18T21:06:25;583.83;;;545.28;;
31974;SDS011;18500;43.618;1.474;2022-12-18T21:08:51;531.60;;;497.25;;
31974;SDS011;18500;43.618;1.474;2022-12-18T21:14:25;621.35;;;579.03;;
31974;SDS011;18500;43.618;1.474;2022-12-18T21:16:51;592.60;;;552.25;;
31974;SDS011;18500;43.618;1.474;2022-12-18T21:19:18;676.33;;;629.38;;
31974;SDS011;18500;43.618;1.474;2022-12-18T21:21:46;568.90;;;530.00;;
31974;SDS011;18500;43.618;1.474;2022-12-18T21:24:12;593.08;;;551.75;;
31974;SDS011;18500;43.618;1.474;2022-12-18T21:26:38;609.88;;;568.13;;
31974;SDS011;18500;43.618;1.474;2022-12-18T21:29:09;589.40;;;548.05;;
31974;SDS011;18500;43.618;1.474;2022-12-18T21:31:37;745.00;;;689.28;;
31974;SDS011;18500;43.618;1.474;2022-12-18T21:34:04;660.00;;;613.97;;
31974;SDS011;18500;43.618;1.474;2022-12-18T21:36:31;644.53;;;599.42;;
31974;SDS011;18500;43.618;1.474;2022-12-18T21:38:58;697.78;;;647.72;;
31974;SDS011;18500;43.618;1.474;2022-12-18T21:41:26;750.72;;;696.70;;
31974;SDS011;18500;43.618;1.474;2022-12-18T21:44:14;706.58;;;656.28;;
31974;SDS011;18500;43.618;1.474;2022-12-18T21:46:45;712.33;;;661.67;;
31974;SDS011;18500;43.618;1.474;2022-12-18T21:49:13;731.95;;;679.70;;
31974;SDS011;18500;43.618;1.474;2022-12-18T21:51:41;720.10;;;668.40;;
31974;SDS011;18500;43.618;1.474;2022-12-18T21:54:07;731.28;;;678.05;;
31974;SDS011;18500;43.618;1.474;2022-12-18T21:56:46;715.70;;;663.30;;
31974;SDS011;18500;43.618;1.474;2022-12-18T21:59:14;709.28;;;658.53;;
31974;SDS011;18500;43.618;1.474;2022-12-18T22:01:43;733.90;;;680.80;;
31974;SDS011;18500;43.618;1.474;2022-12-18T22:04:09;731.80;;;678.75;;
31974;SDS011;18500;43.618;1.474;2022-12-18T22:06:36;685.42;;;636.60;;
31974;SDS011;18500;43.618;1.474;2022-12-18T22:09:02;848.83;;;784.58;;
31974;SDS011;18500;43.618;1.474;2022-12-18T22:11:29;828.38;;;766.08;;
31974;SDS011;18500;43.618;1.474;2022-12-18T22:13:55;812.60;;;751.83;;
31974;SDS011;18500;43.618;1.474;2022-12-18T22:16:21;811.85;;;751.97;;
31974;SDS011;18500;43.618;1.474;2022-12-18T22:18:47;816.13;;;755.17;;
31974;SDS011;18500;43.618;1.474;2022-12-18T22:21:22;774.85;;;718.00;;
31974;SDS011;18500;43.618;1.474;2022-12-18T22:24:24;815.40;;;754.55;;
31974;SDS011;18500;43.618;1.474;2022-12-18T22:26:46;792.25;;;734.25;;
31974;SDS011;18500;43.618;1.474;2022-12-18T22:29:14;784.45;;;726.67;;
31974;SDS011;18500;43.618;1.474;2022-12-18T22:32:00;774.67;;;717.85;;
31974;SDS011;18500;43.618;1.474;2022-12-18T22:34:27;819.38;;;759.17;;
31974;SDS011;18500;43.618;1.474;2022-12-18T22:36:53;773.75;;;717.55;;
31974;SDS011;18500;43.618;1.474;2022-12-18T22:39:20;724.47;;;671.42;;
31974;SDS011;18500;43.618;1.474;2022-12-18T22:41:47;778.58;;;720.40;;
31974;SDS011;18500;43.618;1.474;2022-12-18T22:44:13;802.38;;;742.05;;
31974;SDS011;18500;43.618;1.474;2022-12-18T22:46:39;745.20;;;688.83;;
31974;SDS011;18500;43.618;1.474;2022-12-18T22:49:08;783.85;;;723.85;;
31974;SDS011;18500;43.618;1.474;2022-12-18T22:51:37;734.92;;;680.83;;
